sensor_id;sensor_type;location;lat;lon;timestamp;P1;durP1;ratioP1;P2;durP2;ratioP2
1785;SDS011;890;48.158;11.540;2024-02-04T00:00:34;4.70;;;4.20;;
1785;SDS011;890;48.158;11.540;2024-02-04T00:03:00;5.00;;;4.37;;
1785;SDS011;890;48.158;11.540;2024-02-04T00:05:25;4.90;;;4.50;;
1785;SDS011;890;48.158;11.540;2024-02-04T00:07:51;5.13;;;4.47;;
1785;SDS011;890;48.158;11.540;2024-02-04T00:10:16;5.33;;;4.57;;
1785;SDS011;890;48.158;11.540;2024-02-04T00:12:43;5.60;;;4.83;;
1785;SDS011;890;48.158;11.540;2024-02-04T00:15:09;6.17;;;4.70;;
1785;SDS011;890;48.158;11.540;2024-02-04T00:17:35;5.63;;;5.13;;
1785;SDS011;890;48.158;11.540;2024-02-04T00:20:01;4.97;;;4.50;;
1785;SDS011;890;48.158;11.540;2024-02-04T00:22:28;5.43;;;4.90;;
1785;SDS011;890;48.158;11.540;2024-02-04T00:24:54;3.97;;;3.67;;
1785;SDS011;890;48.158;11.540;2024-02-04T00:27:19;4.97;;;4.43;;
1785;SDS011;890;48.158;11.540;2024-02-04T00:29:45;5.50;;;5.00;;
1785;SDS011;890;48.158;11.540;2024-02-04T00:32:11;6.33;;;4.70;;
1785;SDS011;890;48.158;11.540;2024-02-04T00:34:36;5.00;;;4.50;;
1785;SDS011;890;48.158;11.540;2024-02-04T00:37:02;9.97;;;4.80;;
1785;SDS011;890;48.158;11.540;2024-02-04T00:39:28;5.30;;;4.70;;
1785;SDS011;890;48.158;11.540;2024-02-04T00:41:53;5.33;;;4.67;;
1785;SDS011;890;48.158;11.540;2024-02-04T00:44:19;5.50;;;4.50;;
1785;SDS011;890;48.158;11.540;2024-02-04T00:46:45;5.17;;;4.67;;
1785;SDS011;890;48.158;11.540;2024-02-04T00:49:10;5.37;;;4.87;;
1785;SDS011;890;48.158;11.540;2024-02-04T00:51:36;5.03;;;4.10;;
1785;SDS011;890;48.158;11.540;2024-02-04T00:54:02;5.00;;;4.50;;
1785;SDS011;890;48.158;11.540;2024-02-04T00:56:27;5.60;;;4.50;;
1785;SDS011;890;48.158;11.540;2024-02-04T00:58:53;5.10;;;4.60;;
1785;SDS011;890;48.158;11.540;2024-02-04T01:01:18;6.20;;;5.20;;
1785;SDS011;890;48.158;11.540;2024-02-04T01:03:44;5.70;;;5.10;;
1785;SDS011;890;48.158;11.540;2024-02-04T01:06:10;7.10;;;5.27;;
1785;SDS011;890;48.158;11.540;2024-02-04T01:08:36;7.30;;;5.90;;
1785;SDS011;890;48.158;11.540;2024-02-04T01:11:02;6.63;;;5.73;;
1785;SDS011;890;48.158;11.540;2024-02-04T01:13:30;8.10;;;5.97;;
1785;SDS011;890;48.158;11.540;2024-02-04T01:15:55;7.10;;;6.40;;
1785;SDS011;890;48.158;11.540;2024-02-04T01:18:21;7.90;;;6.70;;
1785;SDS011;890;48.158;11.540;2024-02-04T01:20:46;7.07;;;6.07;;
1785;SDS011;890;48.158;11.540;2024-02-04T01:23:12;7.90;;;5.17;;
1785;SDS011;890;48.158;11.540;2024-02-04T01:25:38;6.90;;;6.20;;
1785;SDS011;890;48.158;11.540;2024-02-04T01:28:04;8.93;;;6.07;;
1785;SDS011;890;48.158;11.540;2024-02-04T01:30:29;7.20;;;6.27;;
1785;SDS011;890;48.158;11.540;2024-02-04T01:32:56;8.07;;;6.70;;
1785;SDS011;890;48.158;11.540;2024-02-04T01:35:22;6.30;;;5.33;;
1785;SDS011;890;48.158;11.540;2024-02-04T01:37:47;7.13;;;6.20;;
1785;SDS011;890;48.158;11.540;2024-02-04T01:40:13;6.30;;;5.33;;
1785;SDS011;890;48.158;11.540;2024-02-04T01:42:39;9.90;;;7.00;;
1785;SDS011;890;48.158;11.540;2024-02-04T01:45:05;6.57;;;5.87;;
1785;SDS011;890;48.158;11.540;2024-02-04T01:47:32;8.90;;;6.40;;
1785;SDS011;890;48.158;11.540;2024-02-04T01:49:58;7.10;;;6.40;;
1785;SDS011;890;48.158;11.540;2024-02-04T01:52:24;8.43;;;6.67;;
1785;SDS011;890;48.158;11.540;2024-02-04T01:54:51;7.30;;;5.93;;
1785;SDS011;890;48.158;11.540;2024-02-04T01:57:18;7.33;;;6.00;;
1785;SDS011;890;48.158;11.540;2024-02-04T01:59:44;6.77;;;5.90;;
1785;SDS011;890;48.158;11.540;2024-02-04T02:02:11;6.50;;;5.90;;
1785;SDS011;890;48.158;11.540;2024-02-04T02:04:36;6.77;;;6.07;;
1785;SDS011;890;48.158;11.540;2024-02-04T02:07:03;6.17;;;5.57;;
1785;SDS011;890;48.158;11.540;2024-02-04T02:09:29;6.20;;;5.30;;
1785;SDS011;890;48.158;11.540;2024-02-04T02:12:03;6.00;;;5.40;;
1785;SDS011;890;48.158;11.540;2024-02-04T02:14:37;8.10;;;6.57;;
1785;SDS011;890;48.158;11.540;2024-02-04T02:17:07;5.73;;;5.00;;
1785;SDS011;890;48.158;11.540;2024-02-04T02:19:48;6.57;;;5.87;;
1785;SDS011;890;48.158;11.540;2024-02-04T02:22:29;5.73;;;5.23;;
1785;SDS011;890;48.158;11.540;2024-02-04T02:25:03;5.30;;;4.80;;
1785;SDS011;890;48.158;11.540;2024-02-04T02:27:30;6.77;;;5.67;;
1785;SDS011;890;48.158;11.540;2024-02-04T02:29:55;5.77;;;5.17;;
1785;SDS011;890;48.158;11.540;2024-02-04T02:32:21;5.57;;;4.90;;
1785;SDS011;890;48.158;11.540;2024-02-04T02:34:48;5.60;;;5.10;;
1785;SDS011;890;48.158;11.540;2024-02-04T02:37:27;5.83;;;4.80;;
1785;SDS011;890;48.158;11.540;2024-02-04T02:42:45;5.57;;;4.73;;
1785;SDS011;890;48.158;11.540;2024-02-04T02:45:12;5.00;;;4.60;;
1785;SDS011;890;48.158;11.540;2024-02-04T02:47:38;5.90;;;5.00;;
1785;SDS011;890;48.158;11.540;2024-02-04T02:50:06;5.63;;;5.03;;
1785;SDS011;890;48.158;11.540;2024-02-04T02:52:33;5.07;;;4.57;;
1785;SDS011;890;48.158;11.540;2024-02-04T02:54:58;5.70;;;5.10;;
1785;SDS011;890;48.158;11.540;2024-02-04T02:57:24;5.37;;;4.87;;
1785;SDS011;890;48.158;11.540;2024-02-04T02:59:50;5.30;;;4.80;;
1785;SDS011;890;48.158;11.540;2024-02-04T03:02:15;5.13;;;4.60;;
1785;SDS011;890;48.158;11.540;2024-02-04T03:04:41;5.13;;;4.67;;
1785;SDS011;890;48.158;11.540;2024-02-04T03:07:06;5.07;;;4.33;;
1785;SDS011;890;48.158;11.540;2024-02-04T03:09:32;4.70;;;4.20;;
1785;SDS011;890;48.158;11.540;2024-02-04T03:11:58;4.80;;;4.03;;
1785;SDS011;890;48.158;11.540;2024-02-04T03:14:24;6.30;;;4.83;;
1785;SDS011;890;48.158;11.540;2024-02-04T03:16:50;4.50;;;4.10;;
1785;SDS011;890;48.158;11.540;2024-02-04T03:19:15;4.97;;;4.37;;
1785;SDS011;890;48.158;11.540;2024-02-04T03:21:41;4.63;;;4.23;;
1785;SDS011;890;48.158;11.540;2024-02-04T03:24:06;4.63;;;4.23;;
1785;SDS011;890;48.158;11.540;2024-02-04T03:26:32;4.87;;;4.00;;
1785;SDS011;890;48.158;11.540;2024-02-04T03:28:58;4.10;;;3.60;;
1785;SDS011;890;48.158;11.540;2024-02-04T03:31:24;4.60;;;4.10;;
1785;SDS011;890;48.158;11.540;2024-02-04T03:33:49;4.30;;;3.90;;
1785;SDS011;890;48.158;11.540;2024-02-04T03:36:18;5.03;;;4.40;;
1785;SDS011;890;48.158;11.540;2024-02-04T03:38:44;4.73;;;4.23;;
1785;SDS011;890;48.158;11.540;2024-02-04T03:41:10;4.10;;;3.63;;
1785;SDS011;890;48.158;11.540;2024-02-04T03:43:36;4.50;;;4.07;;
1785;SDS011;890;48.158;11.540;2024-02-04T03:46:01;4.40;;;4.00;;
1785;SDS011;890;48.158;11.540;2024-02-04T03:48:27;4.77;;;4.30;;
1785;SDS011;890;48.158;11.540;2024-02-04T03:50:53;4.17;;;3.77;;
1785;SDS011;890;48.158;11.540;2024-02-04T03:53:19;4.57;;;4.10;;
1785;SDS011;890;48.158;11.540;2024-02-04T03:55:46;6.30;;;3.97;;
1785;SDS011;890;48.158;11.540;2024-02-04T03:58:11;6.17;;;3.67;;
1785;SDS011;890;48.158;11.540;2024-02-04T04:00:37;4.20;;;3.80;;
1785;SDS011;890;48.158;11.540;2024-02-04T04:03:03;4.10;;;3.47;;
1785;SDS011;890;48.158;11.540;2024-02-04T04:05:29;5.10;;;3.73;;
1785;SDS011;890;48.158;11.540;2024-02-04T04:07:54;4.03;;;3.53;;
1785;SDS011;890;48.158;11.540;2024-02-04T04:10:20;4.00;;;3.60;;
1785;SDS011;890;48.158;11.540;2024-02-04T04:12:46;3.57;;;3.20;;
1785;SDS011;890;48.158;11.540;2024-02-04T04:15:11;4.03;;;3.57;;
1785;SDS011;890;48.158;11.540;2024-02-04T04:17:37;3.93;;;3.47;;
1785;SDS011;890;48.158;11.540;2024-02-04T04:20:03;5.77;;;3.80;;
1785;SDS011;890;48.158;11.540;2024-02-04T04:22:31;4.03;;;3.50;;
1785;SDS011;890;48.158;11.540;2024-02-04T04:24:56;4.37;;;3.30;;
1785;SDS011;890;48.158;11.540;2024-02-04T04:27:22;4.03;;;3.23;;
1785;SDS011;890;48.158;11.540;2024-02-04T04:29:47;4.43;;;3.77;;
1785;SDS011;890;48.158;11.540;2024-02-04T04:32:13;4.00;;;3.47;;
1785;SDS011;890;48.158;11.540;2024-02-04T04:34:39;4.43;;;3.80;;
1785;SDS011;890;48.158;11.540;2024-02-04T04:37:04;4.00;;;3.60;;
1785;SDS011;890;48.158;11.540;2024-02-04T04:39:30;3.50;;;3.00;;
1785;SDS011;890;48.158;11.540;2024-02-04T04:41:56;3.03;;;2.60;;
1785;SDS011;890;48.158;11.540;2024-02-04T04:44:22;3.60;;;3.30;;
1785;SDS011;890;48.158;11.540;2024-02-04T04:46:47;3.90;;;3.50;;
1785;SDS011;890;48.158;11.540;2024-02-04T04:49:13;3.37;;;3.00;;
1785;SDS011;890;48.158;11.540;2024-02-04T04:51:39;4.43;;;3.30;;
1785;SDS011;890;48.158;11.540;2024-02-04T04:54:04;3.90;;;3.50;;
1785;SDS011;890;48.158;11.540;2024-02-04T04:56:30;3.70;;;3.30;;
1785;SDS011;890;48.158;11.540;2024-02-04T04:59:02;3.80;;;3.20;;
1785;SDS011;890;48.158;11.540;2024-02-04T05:01:28;3.27;;;2.70;;
1785;SDS011;890;48.158;11.540;2024-02-04T05:03:53;3.93;;;3.20;;
1785;SDS011;890;48.158;11.540;2024-02-04T05:06:19;4.83;;;3.63;;
1785;SDS011;890;48.158;11.540;2024-02-04T05:08:45;3.47;;;2.87;;
1785;SDS011;890;48.158;11.540;2024-02-04T05:11:10;3.67;;;2.83;;
1785;SDS011;890;48.158;11.540;2024-02-04T05:13:38;2.90;;;2.60;;
1785;SDS011;890;48.158;11.540;2024-02-04T05:16:04;3.37;;;3.07;;
1785;SDS011;890;48.158;11.540;2024-02-04T05:18:30;3.60;;;2.80;;
1785;SDS011;890;48.158;11.540;2024-02-04T05:20:55;4.80;;;3.00;;
1785;SDS011;890;48.158;11.540;2024-02-04T05:23:21;4.57;;;3.50;;
1785;SDS011;890;48.158;11.540;2024-02-04T05:25:47;3.00;;;2.60;;
1785;SDS011;890;48.158;11.540;2024-02-04T05:28:12;2.77;;;2.47;;
1785;SDS011;890;48.158;11.540;2024-02-04T05:30:38;2.80;;;2.50;;
1785;SDS011;890;48.158;11.540;2024-02-04T05:33:04;2.63;;;2.40;;
1785;SDS011;890;48.158;11.540;2024-02-04T05:35:29;3.80;;;2.77;;
1785;SDS011;890;48.158;11.540;2024-02-04T05:37:55;4.10;;;3.10;;
1785;SDS011;890;48.158;11.540;2024-02-04T05:40:20;3.63;;;2.90;;
1785;SDS011;890;48.158;11.540;2024-02-04T05:42:46;3.73;;;3.17;;
1785;SDS011;890;48.158;11.540;2024-02-04T05:45:12;5.80;;;3.17;;
1785;SDS011;890;48.158;11.540;2024-02-04T05:47:38;3.23;;;2.93;;
1785;SDS011;890;48.158;11.540;2024-02-04T05:50:03;3.87;;;3.40;;
1785;SDS011;890;48.158;11.540;2024-02-04T05:52:30;4.00;;;2.97;;
1785;SDS011;890;48.158;11.540;2024-02-04T05:54:55;4.87;;;3.63;;
1785;SDS011;890;48.158;11.540;2024-02-04T05:57:21;4.73;;;3.67;;
1785;SDS011;890;48.158;11.540;2024-02-04T05:59:46;5.80;;;3.90;;
1785;SDS011;890;48.158;11.540;2024-02-04T06:02:15;6.30;;;4.43;;
1785;SDS011;890;48.158;11.540;2024-02-04T06:04:40;4.57;;;3.17;;
1785;SDS011;890;48.158;11.540;2024-02-04T06:07:06;4.00;;;3.60;;
1785;SDS011;890;48.158;11.540;2024-02-04T06:09:32;5.43;;;3.73;;
1785;SDS011;890;48.158;11.540;2024-02-04T06:11:58;4.87;;;3.50;;
1785;SDS011;890;48.158;11.540;2024-02-04T06:14:24;5.63;;;3.83;;
1785;SDS011;890;48.158;11.540;2024-02-04T06:16:49;4.97;;;3.93;;
1785;SDS011;890;48.158;11.540;2024-02-04T06:19:15;4.77;;;3.80;;
1785;SDS011;890;48.158;11.540;2024-02-04T06:21:40;5.50;;;3.90;;
1785;SDS011;890;48.158;11.540;2024-02-04T06:24:06;4.83;;;3.70;;
1785;SDS011;890;48.158;11.540;2024-02-04T06:26:32;3.87;;;3.43;;
1785;SDS011;890;48.158;11.540;2024-02-04T06:28:58;5.10;;;3.43;;
1785;SDS011;890;48.158;11.540;2024-02-04T06:31:23;4.37;;;3.70;;
1785;SDS011;890;48.158;11.540;2024-02-04T06:33:49;4.70;;;3.80;;
1785;SDS011;890;48.158;11.540;2024-02-04T06:36:15;4.17;;;3.27;;
1785;SDS011;890;48.158;11.540;2024-02-04T06:38:41;4.27;;;3.87;;
1785;SDS011;890;48.158;11.540;2024-02-04T06:41:07;3.67;;;3.30;;
1785;SDS011;890;48.158;11.540;2024-02-04T06:43:32;5.10;;;3.33;;
1785;SDS011;890;48.158;11.540;2024-02-04T06:45:58;6.00;;;3.43;;
1785;SDS011;890;48.158;11.540;2024-02-04T06:48:23;6.13;;;4.13;;
1785;SDS011;890;48.158;11.540;2024-02-04T06:50:49;6.93;;;3.80;;
1785;SDS011;890;48.158;11.540;2024-02-04T06:53:15;5.07;;;4.00;;
1785;SDS011;890;48.158;11.540;2024-02-04T06:55:41;6.00;;;5.40;;
1785;SDS011;890;48.158;11.540;2024-02-04T06:58:06;5.60;;;4.80;;
1785;SDS011;890;48.158;11.540;2024-02-04T07:00:32;4.97;;;3.90;;
1785;SDS011;890;48.158;11.540;2024-02-04T07:02:57;7.20;;;3.90;;
1785;SDS011;890;48.158;11.540;2024-02-04T07:05:23;4.97;;;4.47;;
1785;SDS011;890;48.158;11.540;2024-02-04T07:07:49;5.70;;;3.60;;
1785;SDS011;890;48.158;11.540;2024-02-04T07:10:16;5.50;;;4.33;;
1785;SDS011;890;48.158;11.540;2024-02-04T07:12:42;4.97;;;4.33;;
1785;SDS011;890;48.158;11.540;2024-02-04T07:15:08;7.90;;;4.73;;
1785;SDS011;890;48.158;11.540;2024-02-04T07:17:34;4.97;;;4.23;;
1785;SDS011;890;48.158;11.540;2024-02-04T07:20:00;7.33;;;5.07;;
1785;SDS011;890;48.158;11.540;2024-02-04T07:22:27;6.83;;;4.87;;
1785;SDS011;890;48.158;11.540;2024-02-04T07:24:53;5.33;;;4.50;;
1785;SDS011;890;48.158;11.540;2024-02-04T07:27:19;10.40;;;5.30;;
1785;SDS011;890;48.158;11.540;2024-02-04T07:29:44;5.77;;;5.00;;
1785;SDS011;890;48.158;11.540;2024-02-04T07:32:12;6.07;;;4.13;;
1785;SDS011;890;48.158;11.540;2024-02-04T07:34:38;7.30;;;4.53;;
1785;SDS011;890;48.158;11.540;2024-02-04T07:37:03;9.67;;;5.47;;
1785;SDS011;890;48.158;11.540;2024-02-04T07:39:29;9.77;;;5.20;;
1785;SDS011;890;48.158;11.540;2024-02-04T07:41:55;6.33;;;5.47;;
1785;SDS011;890;48.158;11.540;2024-02-04T07:44:25;6.67;;;5.10;;
1785;SDS011;890;48.158;11.540;2024-02-04T07:46:54;10.17;;;5.00;;
1785;SDS011;890;48.158;11.540;2024-02-04T07:49:19;8.60;;;5.27;;
1785;SDS011;890;48.158;11.540;2024-02-04T07:51:45;6.10;;;4.47;;
1785;SDS011;890;48.158;11.540;2024-02-04T07:54:10;8.37;;;5.00;;
1785;SDS011;890;48.158;11.540;2024-02-04T07:56:36;6.57;;;5.27;;
1785;SDS011;890;48.158;11.540;2024-02-04T07:59:02;7.67;;;4.60;;
1785;SDS011;890;48.158;11.540;2024-02-04T08:01:28;5.47;;;4.80;;
1785;SDS011;890;48.158;11.540;2024-02-04T08:03:54;7.13;;;4.70;;
1785;SDS011;890;48.158;11.540;2024-02-04T08:06:20;7.10;;;3.97;;
1785;SDS011;890;48.158;11.540;2024-02-04T08:08:45;8.30;;;5.23;;
1785;SDS011;890;48.158;11.540;2024-02-04T08:11:15;5.63;;;4.27;;
1785;SDS011;890;48.158;11.540;2024-02-04T08:13:42;6.63;;;4.20;;
1785;SDS011;890;48.158;11.540;2024-02-04T08:16:08;6.50;;;4.00;;
1785;SDS011;890;48.158;11.540;2024-02-04T08:18:34;4.57;;;3.80;;
1785;SDS011;890;48.158;11.540;2024-02-04T08:20:59;6.77;;;3.93;;
1785;SDS011;890;48.158;11.540;2024-02-04T08:23:25;5.20;;;3.47;;
1785;SDS011;890;48.158;11.540;2024-02-04T08:25:50;4.90;;;3.73;;
1785;SDS011;890;48.158;11.540;2024-02-04T08:28:16;4.20;;;3.40;;
1785;SDS011;890;48.158;11.540;2024-02-04T08:30:42;4.30;;;3.17;;
1785;SDS011;890;48.158;11.540;2024-02-04T08:33:08;4.27;;;3.03;;
1785;SDS011;890;48.158;11.540;2024-02-04T08:35:33;6.37;;;3.27;;
1785;SDS011;890;48.158;11.540;2024-02-04T08:37:59;5.00;;;3.60;;
1785;SDS011;890;48.158;11.540;2024-02-04T08:40:25;5.67;;;4.27;;
1785;SDS011;890;48.158;11.540;2024-02-04T08:42:50;4.60;;;3.30;;
1785;SDS011;890;48.158;11.540;2024-02-04T08:45:16;5.60;;;3.10;;
1785;SDS011;890;48.158;11.540;2024-02-04T08:47:42;4.17;;;2.63;;
1785;SDS011;890;48.158;11.540;2024-02-04T08:50:08;4.03;;;3.00;;
1785;SDS011;890;48.158;11.540;2024-02-04T08:52:34;5.10;;;3.50;;
1785;SDS011;890;48.158;11.540;2024-02-04T08:54:59;4.77;;;2.97;;
1785;SDS011;890;48.158;11.540;2024-02-04T08:57:28;5.63;;;2.67;;
1785;SDS011;890;48.158;11.540;2024-02-04T08:59:57;3.50;;;2.70;;
1785;SDS011;890;48.158;11.540;2024-02-04T09:02:22;4.13;;;2.80;;
1785;SDS011;890;48.158;11.540;2024-02-04T09:04:48;3.93;;;2.70;;
1785;SDS011;890;48.158;11.540;2024-02-04T09:07:14;6.00;;;2.90;;
1785;SDS011;890;48.158;11.540;2024-02-04T09:09:39;3.97;;;2.60;;
1785;SDS011;890;48.158;11.540;2024-02-04T09:12:07;4.20;;;3.17;;
1785;SDS011;890;48.158;11.540;2024-02-04T09:14:34;3.50;;;2.60;;
1785;SDS011;890;48.158;11.540;2024-02-04T09:17:02;5.87;;;3.30;;
1785;SDS011;890;48.158;11.540;2024-02-04T09:19:29;5.00;;;3.00;;
1785;SDS011;890;48.158;11.540;2024-02-04T09:21:56;5.83;;;2.73;;
1785;SDS011;890;48.158;11.540;2024-02-04T09:24:21;4.30;;;3.30;;
1785;SDS011;890;48.158;11.540;2024-02-04T09:26:47;4.30;;;2.80;;
1785;SDS011;890;48.158;11.540;2024-02-04T09:29:13;5.53;;;3.43;;
1785;SDS011;890;48.158;11.540;2024-02-04T09:31:39;4.50;;;3.20;;
1785;SDS011;890;48.158;11.540;2024-02-04T09:34:05;4.57;;;3.40;;
1785;SDS011;890;48.158;11.540;2024-02-04T09:36:30;5.57;;;3.57;;
1785;SDS011;890;48.158;11.540;2024-02-04T09:38:56;4.17;;;3.00;;
1785;SDS011;890;48.158;11.540;2024-02-04T09:41:21;5.43;;;3.57;;
1785;SDS011;890;48.158;11.540;2024-02-04T09:43:49;12.30;;;3.53;;
1785;SDS011;890;48.158;11.540;2024-02-04T09:46:17;4.73;;;3.47;;
1785;SDS011;890;48.158;11.540;2024-02-04T09:48:43;6.43;;;3.77;;
1785;SDS011;890;48.158;11.540;2024-02-04T09:51:10;5.00;;;3.30;;
1785;SDS011;890;48.158;11.540;2024-02-04T09:53:36;5.90;;;3.73;;
1785;SDS011;890;48.158;11.540;2024-02-04T09:56:08;6.10;;;4.30;;
1785;SDS011;890;48.158;11.540;2024-02-04T09:58:35;4.43;;;3.53;;
1785;SDS011;890;48.158;11.540;2024-02-04T10:01:02;3.60;;;2.67;;
1785;SDS011;890;48.158;11.540;2024-02-04T10:03:29;7.57;;;4.63;;
1785;SDS011;890;48.158;11.540;2024-02-04T10:05:55;7.50;;;4.00;;
1785;SDS011;890;48.158;11.540;2024-02-04T10:08:21;9.00;;;4.73;;
1785;SDS011;890;48.158;11.540;2024-02-04T10:10:47;5.17;;;3.87;;
1785;SDS011;890;48.158;11.540;2024-02-04T10:13:13;8.40;;;4.37;;
1785;SDS011;890;48.158;11.540;2024-02-04T10:15:39;5.97;;;4.20;;
1785;SDS011;890;48.158;11.540;2024-02-04T10:18:05;5.00;;;4.27;;
1785;SDS011;890;48.158;11.540;2024-02-04T10:20:32;9.37;;;4.33;;
1785;SDS011;890;48.158;11.540;2024-02-04T10:22:58;9.07;;;4.03;;
1785;SDS011;890;48.158;11.540;2024-02-04T10:25:23;9.50;;;4.03;;
1785;SDS011;890;48.158;11.540;2024-02-04T10:27:49;4.93;;;3.70;;
1785;SDS011;890;48.158;11.540;2024-02-04T10:30:18;6.70;;;3.63;;
1785;SDS011;890;48.158;11.540;2024-02-04T10:32:49;4.60;;;3.57;;
1785;SDS011;890;48.158;11.540;2024-02-04T10:35:16;7.67;;;3.60;;
1785;SDS011;890;48.158;11.540;2024-02-04T10:37:44;6.57;;;4.20;;
1785;SDS011;890;48.158;11.540;2024-02-04T10:40:10;6.03;;;3.67;;
1785;SDS011;890;48.158;11.540;2024-02-04T10:42:36;9.53;;;3.77;;
1785;SDS011;890;48.158;11.540;2024-02-04T10:45:07;6.47;;;3.90;;
1785;SDS011;890;48.158;11.540;2024-02-04T10:47:38;4.87;;;3.77;;
1785;SDS011;890;48.158;11.540;2024-02-04T10:50:04;7.03;;;4.03;;
1785;SDS011;890;48.158;11.540;2024-02-04T10:52:37;5.00;;;3.40;;
1785;SDS011;890;48.158;11.540;2024-02-04T10:55:07;5.07;;;3.90;;
1785;SDS011;890;48.158;11.540;2024-02-04T10:57:35;5.50;;;3.77;;
1785;SDS011;890;48.158;11.540;2024-02-04T11:00:04;5.80;;;4.10;;
1785;SDS011;890;48.158;11.540;2024-02-04T11:02:36;4.57;;;3.17;;
1785;SDS011;890;48.158;11.540;2024-02-04T11:05:03;6.03;;;3.40;;
1785;SDS011;890;48.158;11.540;2024-02-04T11:07:31;5.40;;;4.00;;
1785;SDS011;890;48.158;11.540;2024-02-04T11:09:59;3.40;;;2.70;;
1785;SDS011;890;48.158;11.540;2024-02-04T11:12:28;4.33;;;2.83;;
1785;SDS011;890;48.158;11.540;2024-02-04T11:14:57;3.90;;;3.30;;
1785;SDS011;890;48.158;11.540;2024-02-04T11:23:22;2.20;;;1.43;;
1785;SDS011;890;48.158;11.540;2024-02-04T11:25:52;2.23;;;1.67;;
1785;SDS011;890;48.158;11.540;2024-02-04T11:28:20;1.90;;;1.70;;
1785;SDS011;890;48.158;11.540;2024-02-04T11:30:47;3.10;;;1.70;;
1785;SDS011;890;48.158;11.540;2024-02-04T11:33:17;3.13;;;1.50;;
1785;SDS011;890;48.158;11.540;2024-02-04T11:35:44;1.97;;;1.40;;
1785;SDS011;890;48.158;11.540;2024-02-04T11:38:10;3.87;;;3.47;;
1785;SDS011;890;48.158;11.540;2024-02-04T11:40:38;2.83;;;1.90;;
1785;SDS011;890;48.158;11.540;2024-02-04T11:45:30;3.20;;;1.90;;
1785;SDS011;890;48.158;11.540;2024-02-04T11:48:02;2.40;;;1.60;;
1785;SDS011;890;48.158;11.540;2024-02-04T11:50:29;4.30;;;1.60;;
1785;SDS011;890;48.158;11.540;2024-02-04T11:53:05;2.53;;;1.70;;
1785;SDS011;890;48.158;11.540;2024-02-04T11:55:33;1.80;;;1.40;;
1785;SDS011;890;48.158;11.540;2024-02-04T11:58:00;2.67;;;1.70;;
1785;SDS011;890;48.158;11.540;2024-02-04T12:00:27;1.43;;;1.13;;
1785;SDS011;890;48.158;11.540;2024-02-04T12:03:05;2.30;;;1.27;;
1785;SDS011;890;48.158;11.540;2024-02-04T12:05:32;3.40;;;1.50;;
1785;SDS011;890;48.158;11.540;2024-02-04T12:08:05;3.10;;;1.50;;
1785;SDS011;890;48.158;11.540;2024-02-04T12:10:32;2.40;;;1.70;;
1785;SDS011;890;48.158;11.540;2024-02-04T12:12:59;2.70;;;1.57;;
1785;SDS011;890;48.158;11.540;2024-02-04T12:15:31;6.43;;;2.73;;
1785;SDS011;890;48.158;11.540;2024-02-04T12:18:08;4.20;;;2.43;;
1785;SDS011;890;48.158;11.540;2024-02-04T12:20:35;2.70;;;2.50;;
1785;SDS011;890;48.158;11.540;2024-02-04T12:23:04;3.40;;;2.20;;
1785;SDS011;890;48.158;11.540;2024-02-04T12:25:30;2.20;;;1.60;;
1785;SDS011;890;48.158;11.540;2024-02-04T12:28:00;2.10;;;1.90;;
1785;SDS011;890;48.158;11.540;2024-02-04T12:30:28;3.50;;;1.40;;
1785;SDS011;890;48.158;11.540;2024-02-04T12:35:24;2.90;;;2.30;;
1785;SDS011;890;48.158;11.540;2024-02-04T12:37:53;2.47;;;1.60;;
1785;SDS011;890;48.158;11.540;2024-02-04T12:40:27;6.37;;;3.20;;
1785;SDS011;890;48.158;11.540;2024-02-04T12:43:00;6.13;;;2.27;;
1785;SDS011;890;48.158;11.540;2024-02-04T12:45:28;4.13;;;2.00;;
1785;SDS011;890;48.158;11.540;2024-02-04T12:47:54;3.03;;;1.73;;
1785;SDS011;890;48.158;11.540;2024-02-04T12:50:21;3.00;;;1.70;;
1785;SDS011;890;48.158;11.540;2024-02-04T12:52:48;3.30;;;2.37;;
1785;SDS011;890;48.158;11.540;2024-02-04T12:57:50;4.97;;;2.17;;
1785;SDS011;890;48.158;11.540;2024-02-04T13:00:19;9.57;;;4.07;;
1785;SDS011;890;48.158;11.540;2024-02-04T13:02:48;5.87;;;2.27;;
1785;SDS011;890;48.158;11.540;2024-02-04T13:05:21;2.20;;;1.60;;
1785;SDS011;890;48.158;11.540;2024-02-04T13:07:56;3.20;;;1.40;;
1785;SDS011;890;48.158;11.540;2024-02-04T13:10:23;3.20;;;2.40;;
1785;SDS011;890;48.158;11.540;2024-02-04T13:15:28;6.00;;;1.67;;
1785;SDS011;890;48.158;11.540;2024-02-04T13:17:55;3.23;;;2.40;;
1785;SDS011;890;48.158;11.540;2024-02-04T13:20:21;4.53;;;2.20;;
1785;SDS011;890;48.158;11.540;2024-02-04T13:22:47;4.93;;;2.10;;
1785;SDS011;890;48.158;11.540;2024-02-04T13:25:13;4.93;;;2.13;;
1785;SDS011;890;48.158;11.540;2024-02-04T13:27:38;6.30;;;2.53;;
1785;SDS011;890;48.158;11.540;2024-02-04T13:30:05;5.27;;;2.60;;
1785;SDS011;890;48.158;11.540;2024-02-04T13:32:36;3.93;;;1.87;;
1785;SDS011;890;48.158;11.540;2024-02-04T13:35:08;7.50;;;2.23;;
1785;SDS011;890;48.158;11.540;2024-02-04T13:37:38;4.40;;;2.20;;
1785;SDS011;890;48.158;11.540;2024-02-04T13:40:05;6.00;;;2.17;;
1785;SDS011;890;48.158;11.540;2024-02-04T13:42:32;5.20;;;2.13;;
1785;SDS011;890;48.158;11.540;2024-02-04T13:45:00;4.37;;;2.20;;
1785;SDS011;890;48.158;11.540;2024-02-04T13:47:26;6.37;;;1.90;;
1785;SDS011;890;48.158;11.540;2024-02-04T13:49:52;12.13;;;3.37;;
1785;SDS011;890;48.158;11.540;2024-02-04T13:52:18;7.47;;;3.50;;
1785;SDS011;890;48.158;11.540;2024-02-04T13:54:44;2.43;;;1.53;;
1785;SDS011;890;48.158;11.540;2024-02-04T13:57:09;8.57;;;3.20;;
1785;SDS011;890;48.158;11.540;2024-02-04T13:59:36;4.90;;;2.30;;
1785;SDS011;890;48.158;11.540;2024-02-04T14:02:01;4.20;;;1.90;;
1785;SDS011;890;48.158;11.540;2024-02-04T14:04:27;4.97;;;2.00;;
1785;SDS011;890;48.158;11.540;2024-02-04T14:06:54;7.80;;;2.53;;
1785;SDS011;890;48.158;11.540;2024-02-04T14:09:20;6.67;;;2.17;;
1785;SDS011;890;48.158;11.540;2024-02-04T14:11:46;5.00;;;2.67;;
1785;SDS011;890;48.158;11.540;2024-02-04T14:14:12;8.47;;;2.53;;
1785;SDS011;890;48.158;11.540;2024-02-04T14:16:37;3.13;;;2.10;;
1785;SDS011;890;48.158;11.540;2024-02-04T14:19:04;5.37;;;2.20;;
1785;SDS011;890;48.158;11.540;2024-02-04T14:21:29;4.80;;;2.23;;
1785;SDS011;890;48.158;11.540;2024-02-04T14:23:55;8.47;;;2.57;;
1785;SDS011;890;48.158;11.540;2024-02-04T14:26:21;7.13;;;2.53;;
1785;SDS011;890;48.158;11.540;2024-02-04T14:28:47;4.23;;;2.03;;
1785;SDS011;890;48.158;11.540;2024-02-04T14:31:13;6.50;;;2.60;;
1785;SDS011;890;48.158;11.540;2024-02-04T14:33:39;5.80;;;2.67;;
1785;SDS011;890;48.158;11.540;2024-02-04T14:36:08;3.67;;;2.13;;
1785;SDS011;890;48.158;11.540;2024-02-04T14:38:35;9.53;;;2.20;;
1785;SDS011;890;48.158;11.540;2024-02-04T14:41:03;4.40;;;2.10;;
1785;SDS011;890;48.158;11.540;2024-02-04T14:43:29;6.23;;;2.33;;
1785;SDS011;890;48.158;11.540;2024-02-04T14:45:55;7.07;;;2.40;;
1785;SDS011;890;48.158;11.540;2024-02-04T14:48:21;5.73;;;2.40;;
1785;SDS011;890;48.158;11.540;2024-02-04T14:50:46;3.73;;;2.03;;
1785;SDS011;890;48.158;11.540;2024-02-04T14:53:13;12.50;;;3.50;;
1785;SDS011;890;48.158;11.540;2024-02-04T14:55:39;7.73;;;2.53;;
1785;SDS011;890;48.158;11.540;2024-02-04T14:58:05;6.70;;;2.50;;
1785;SDS011;890;48.158;11.540;2024-02-04T15:00:31;5.97;;;2.30;;
1785;SDS011;890;48.158;11.540;2024-02-04T15:02:57;4.90;;;2.20;;
1785;SDS011;890;48.158;11.540;2024-02-04T15:05:24;6.43;;;2.43;;
1785;SDS011;890;48.158;11.540;2024-02-04T15:07:50;6.10;;;1.77;;
1785;SDS011;890;48.158;11.540;2024-02-04T15:10:16;7.50;;;2.47;;
1785;SDS011;890;48.158;11.540;2024-02-04T15:12:43;6.70;;;2.30;;
1785;SDS011;890;48.158;11.540;2024-02-04T15:15:09;6.23;;;2.80;;
1785;SDS011;890;48.158;11.540;2024-02-04T15:17:36;4.83;;;1.90;;
1785;SDS011;890;48.158;11.540;2024-02-04T15:20:02;4.10;;;1.93;;
1785;SDS011;890;48.158;11.540;2024-02-04T15:22:28;7.00;;;2.73;;
1785;SDS011;890;48.158;11.540;2024-02-04T15:24:55;3.57;;;1.60;;
1785;SDS011;890;48.158;11.540;2024-02-04T15:27:22;5.20;;;2.00;;
1785;SDS011;890;48.158;11.540;2024-02-04T15:29:52;8.03;;;2.83;;